createdAt,value
2019-02-18T00:01:41.635Z,37.20
2019-02-18T00:04:10.793Z,37.30
2019-02-18T00:06:39.924Z,37.48
2019-02-18T00:09:08.963Z,37.48
2019-02-18T00:11:38.046Z,37.61
2019-02-18T00:14:07.035Z,37.71
2019-02-18T00:16:36.113Z,37.81
2019-02-18T00:19:05.183Z,37.93
2019-02-18T00:21:34.275Z,37.83
2019-02-18T00:24:03.399Z,38.26
2019-02-18T00:26:32.486Z,38.23
2019-02-18T00:29:01.537Z,38.59
2019-02-18T00:31:30.659Z,38.72
2019-02-18T00:33:59.678Z,38.86
2019-02-18T00:36:28.814Z,38.70
2019-02-18T00:38:58.411Z,38.96
2019-02-18T00:41:27.483Z,39.25
2019-02-18T00:43:56.595Z,39.19
2019-02-18T00:46:25.702Z,39.30
2019-02-18T00:48:54.769Z,39.56
2019-02-18T00:51:23.790Z,39.70
2019-02-18T00:53:52.853Z,39.77
2019-02-18T00:56:21.924Z,39.95
2019-02-18T00:58:51.044Z,40.12
2019-02-18T01:01:20.093Z,39.96
2019-02-18T01:03:49.142Z,40.01
2019-02-18T01:06:18.239Z,40.21
2019-02-18T01:08:47.313Z,40.45
2019-02-18T01:11:16.381Z,40.41
2019-02-18T01:13:45.521Z,40.57
2019-02-18T01:16:14.595Z,40.61
2019-02-18T01:18:43.709Z,40.73
2019-02-18T01:21:12.777Z,41.03
2019-02-18T01:23:41.947Z,41.19
2019-02-18T01:26:11.013Z,41.44
2019-02-18T01:28:40.095Z,41.58
2019-02-18T01:31:09.146Z,41.82
2019-02-18T01:33:38.258Z,41.83
2019-02-18T01:36:08.979Z,41.71
2019-02-18T01:38:37.989Z,41.66
2019-02-18T01:41:07.049Z,41.73
2019-02-18T01:43:36.174Z,41.73
2019-02-18T01:46:05.206Z,41.79
2019-02-18T01:48:34.233Z,41.83
2019-02-18T01:51:03.250Z,41.95
2019-02-18T01:53:32.389Z,42.07
2019-02-18T01:56:01.448Z,42.27
2019-02-18T01:58:30.512Z,42.29
2019-02-18T02:00:59.539Z,42.38
2019-02-18T02:03:28.589Z,42.59
2019-02-18T02:05:57.504Z,42.64
2019-02-18T02:08:26.558Z,42.78
2019-02-18T02:10:55.547Z,42.86
2019-02-18T02:13:29.114Z,43.15
2019-02-18T02:15:58.919Z,43.31
2019-02-18T02:18:28.257Z,43.26
2019-02-18T02:20:57.303Z,43.43
2019-02-18T02:23:26.326Z,43.47
2019-02-18T02:25:55.280Z,43.57
2019-02-18T02:28:24.350Z,43.72
2019-02-18T02:30:53.373Z,43.71
2019-02-18T02:33:22.412Z,43.76
2019-02-18T02:35:51.497Z,43.91
2019-02-18T02:38:20.510Z,43.91
2019-02-18T02:40:49.562Z,43.91
2019-02-18T02:43:18.573Z,43.93
2019-02-18T02:45:47.642Z,44.07
2019-02-18T02:48:16.629Z,44.21
2019-02-18T02:50:45.780Z,44.29
2019-02-18T02:53:14.653Z,44.37
2019-02-18T02:55:43.653Z,44.36
2019-02-18T02:58:12.645Z,44.43
2019-02-18T03:00:41.749Z,44.54
2019-02-18T03:03:10.749Z,44.52
2019-02-18T03:05:39.795Z,44.60
2019-02-18T03:08:19.852Z,44.60
2019-02-18T03:10:39.669Z,44.72
2019-02-18T03:13:08.681Z,44.70
2019-02-18T03:15:37.782Z,44.85
2019-02-18T03:18:06.798Z,44.89
2019-02-18T03:20:35.843Z,44.93
2019-02-18T03:23:04.866Z,45.00
2019-02-18T03:25:33.896Z,45.38
2019-02-18T03:28:10.522Z,45.55
2019-02-18T03:30:48.595Z,45.44
2019-02-18T03:33:20.825Z,45.47
2019-02-18T03:35:50.183Z,45.48
2019-02-18T03:38:30.876Z,45.50
2019-02-18T03:40:50.112Z,45.49
2019-02-18T03:43:19.175Z,45.55
2019-02-18T03:45:48.279Z,45.56
2019-02-18T03:48:17.321Z,45.60
2019-02-18T03:50:46.486Z,45.64
2019-02-18T03:53:15.487Z,45.85
2019-02-18T03:55:44.499Z,45.97
2019-02-18T03:58:13.508Z,45.91
2019-02-18T04:00:42.541Z,45.89
2019-02-18T04:03:12.299Z,46.04
2019-02-18T04:05:41.311Z,46.02
2019-02-18T04:08:10.301Z,45.98
2019-02-18T04:10:39.361Z,45.99
2019-02-18T04:13:08.398Z,46.06
2019-02-18T04:15:37.457Z,46.10
2019-02-18T04:18:06.436Z,46.29
2019-02-18T04:20:35.552Z,46.31
2019-02-18T04:23:04.600Z,46.38
2019-02-18T04:25:33.658Z,46.57
2019-02-18T04:28:02.705Z,46.48
2019-02-18T04:30:31.709Z,46.60
2019-02-18T04:33:00.756Z,46.58
2019-02-18T04:35:29.751Z,46.54
2019-02-18T04:37:58.772Z,46.58
2019-02-18T04:40:27.739Z,46.57
2019-02-18T04:42:56.771Z,46.66
2019-02-18T04:45:25.817Z,46.70
2019-02-18T04:47:54.859Z,46.72
2019-02-18T04:50:23.916Z,46.80
2019-02-18T04:52:52.930Z,46.88
2019-02-18T04:55:21.943Z,46.93
2019-02-18T04:57:50.957Z,46.88
2019-02-18T05:00:19.987Z,46.96
2019-02-18T05:02:49.035Z,46.85
2019-02-18T05:05:18.041Z,46.91
2019-02-18T05:07:47.067Z,46.91
2019-02-18T05:10:16.134Z,46.97
2019-02-18T05:12:45.187Z,47.03
2019-02-18T05:15:14.246Z,47.09
2019-02-18T05:17:43.304Z,47.18
2019-02-18T05:20:12.339Z,47.26
2019-02-18T05:22:41.334Z,47.27
2019-02-18T05:25:12.830Z,47.29
2019-02-18T05:27:41.112Z,47.31
2019-02-18T05:30:10.216Z,47.39
2019-02-18T05:32:39.208Z,47.47
2019-02-18T05:35:08.636Z,47.54
2019-02-18T05:37:37.662Z,47.60
2019-02-18T05:40:06.657Z,47.67
2019-02-18T05:42:35.664Z,47.71
2019-02-18T05:45:04.700Z,47.78
2019-02-18T05:47:33.740Z,47.80
2019-02-18T05:50:02.783Z,47.87
2019-02-18T05:52:31.808Z,47.93
2019-02-18T05:55:00.820Z,47.98
2019-02-18T05:57:29.806Z,48.04
2019-02-18T05:59:58.870Z,48.00
2019-02-18T06:02:27.858Z,48.13
2019-02-18T06:04:56.881Z,48.12
2019-02-18T06:07:25.869Z,48.13
2019-02-18T06:09:54.909Z,48.15
2019-02-18T06:12:23.900Z,48.15
2019-02-18T06:14:53.005Z,48.20
2019-02-18T06:17:22.075Z,48.26
2019-02-18T06:19:51.198Z,48.33
2019-02-18T06:22:20.234Z,48.36
2019-02-18T06:24:49.288Z,48.43
2019-02-18T06:27:19.088Z,48.49
2019-02-18T06:29:48.231Z,48.42
2019-02-18T06:32:17.255Z,48.50
2019-02-18T06:34:46.292Z,48.46
2019-02-18T06:37:15.366Z,48.47
2019-02-18T06:39:44.779Z,48.48
2019-02-18T06:42:13.831Z,48.53
2019-02-18T06:44:55.098Z,48.52
2019-02-18T06:47:28.443Z,48.45
2019-02-18T06:49:57.469Z,48.49
2019-02-18T06:52:26.515Z,48.52
2019-02-18T06:54:55.557Z,48.50
2019-02-18T06:57:37.352Z,48.48
2019-02-18T07:00:22.528Z,48.57
2019-02-18T07:03:08.708Z,48.59
2019-02-18T07:06:08.677Z,48.48
2019-02-18T07:08:59.811Z,48.42
2019-02-18T07:11:32.926Z,48.42
2019-02-18T07:14:01.982Z,48.49
2019-02-18T07:16:31.091Z,48.55
2019-02-18T07:19:00.148Z,48.57
2019-02-18T07:21:29.257Z,48.53
2019-02-18T07:23:58.295Z,48.46
2019-02-18T07:26:27.365Z,48.43
2019-02-18T07:28:56.421Z,48.24
2019-02-18T07:31:25.468Z,47.26
2019-02-18T07:33:54.542Z,46.10
2019-02-18T07:36:24.763Z,44.83
2019-02-18T07:38:53.769Z,43.61
2019-02-18T07:41:22.822Z,42.26
2019-02-18T07:43:51.871Z,40.97
2019-02-18T07:46:21.073Z,39.68
2019-02-18T07:48:50.067Z,38.46
2019-02-18T07:51:19.172Z,37.15
2019-02-18T07:53:48.255Z,36.37
2019-02-18T07:56:17.353Z,35.23
2019-02-18T07:58:46.423Z,34.20
2019-02-18T08:01:15.491Z,33.25
2019-02-18T08:03:44.563Z,32.29
2019-02-18T08:06:13.727Z,31.12
2019-02-18T08:08:42.800Z,30.34
2019-02-18T08:11:11.905Z,29.52
2019-02-18T08:13:40.910Z,28.65
2019-02-18T08:16:10.042Z,27.91
2019-02-18T08:18:39.243Z,27.28
2019-02-18T08:21:08.355Z,26.68
2019-02-18T08:23:37.389Z,26.07
2019-02-18T08:26:06.749Z,25.21
2019-02-18T08:28:35.776Z,24.76
2019-02-18T08:31:04.825Z,24.21
2019-02-18T08:33:33.922Z,23.69
2019-02-18T08:36:03.112Z,23.03
2019-02-18T08:38:32.287Z,22.56
2019-02-18T08:41:01.368Z,22.14
2019-02-18T08:43:30.445Z,21.49
2019-02-18T08:45:59.449Z,21.05
2019-02-18T08:48:28.532Z,20.50
2019-02-18T08:50:57.525Z,19.92
2019-02-18T08:53:26.644Z,19.54
2019-02-18T08:55:55.694Z,18.92
2019-02-18T08:58:24.821Z,18.66
2019-02-18T09:01:02.332Z,18.13
2019-02-18T09:03:24.753Z,17.80
2019-02-18T09:05:53.793Z,17.27
2019-02-18T09:08:22.924Z,16.94
2019-02-18T09:10:51.966Z,16.46
2019-02-18T09:13:20.983Z,16.08
2019-02-18T09:15:59.655Z,15.62
2019-02-18T09:18:20.838Z,15.36
2019-02-18T09:20:49.855Z,15.01
2019-02-18T09:23:28.458Z,14.58
2019-02-18T09:26:00.107Z,14.27
2019-02-18T09:28:29.195Z,14.10
2019-02-18T09:30:58.358Z,13.85
2019-02-18T09:33:27.443Z,13.33
2019-02-18T09:35:56.490Z,12.82
2019-02-18T09:38:25.735Z,12.03
2019-02-18T09:40:54.749Z,11.38
2019-02-18T09:43:23.822Z,10.87
2019-02-18T09:45:52.949Z,10.62
2019-02-18T09:48:22.061Z,9.96
2019-02-18T09:50:51.108Z,9.76
2019-02-18T09:53:20.264Z,9.70
2019-02-18T09:55:49.333Z,9.57
2019-02-18T09:58:18.425Z,9.18
2019-02-18T10:00:47.369Z,8.97
2019-02-18T10:03:16.420Z,8.74
2019-02-18T10:05:45.477Z,8.40
2019-02-18T10:08:14.668Z,8.15
2019-02-18T10:10:43.727Z,8.10
2019-02-18T10:13:12.827Z,7.90
2019-02-18T10:15:41.928Z,7.47
2019-02-18T10:18:11.096Z,7.52
2019-02-18T10:20:40.132Z,7.43
2019-02-18T10:23:09.302Z,7.16
2019-02-18T10:25:38.486Z,7.05
2019-02-18T10:28:07.765Z,7.00
2019-02-18T10:30:36.971Z,6.76
2019-02-18T10:33:06.128Z,6.67
2019-02-18T10:35:35.223Z,6.40
2019-02-18T10:38:04.245Z,6.18
2019-02-18T10:40:33.322Z,6.17
2019-02-18T10:43:02.400Z,6.10
2019-02-18T10:45:31.549Z,6.05
2019-02-18T10:48:00.813Z,6.17
2019-02-18T10:50:32.790Z,6.18
2019-02-18T10:53:02.204Z,6.14
2019-02-18T10:55:31.496Z,5.96
2019-02-18T10:58:00.792Z,5.76
2019-02-18T11:00:30.470Z,5.64
2019-02-18T11:02:59.581Z,5.60
2019-02-18T11:05:28.794Z,5.57
2019-02-18T11:07:58.378Z,5.48
2019-02-18T11:10:27.608Z,5.21
2019-02-18T11:12:56.827Z,5.11
2019-02-18T11:15:26.465Z,5.02
2019-02-18T11:17:55.682Z,4.79
2019-02-18T11:20:24.918Z,4.80
2019-02-18T11:22:53.980Z,4.68
2019-02-18T11:25:23.170Z,4.62
2019-02-18T11:27:52.217Z,4.49
2019-02-18T11:30:21.692Z,4.43
2019-02-18T11:32:50.728Z,4.32
2019-02-18T11:35:19.817Z,4.30
2019-02-18T11:37:48.942Z,4.19
2019-02-18T11:40:18.323Z,4.25
2019-02-18T11:42:47.412Z,4.24
2019-02-18T11:45:16.581Z,4.31
2019-02-18T11:47:45.710Z,4.48
2019-02-18T11:50:14.826Z,4.59
2019-02-18T11:52:44.014Z,4.41
2019-02-18T11:55:13.111Z,4.44
2019-02-18T11:57:42.583Z,4.45
2019-02-18T12:00:12.326Z,4.19
2019-02-18T12:02:41.500Z,4.14
2019-02-18T12:05:10.916Z,4.31
2019-02-18T12:07:40.087Z,4.45
2019-02-18T12:10:09.878Z,4.37
2019-02-18T12:12:39.509Z,4.27
2019-02-18T12:15:10.792Z,4.07
2019-02-18T12:17:40.009Z,3.79
2019-02-18T12:20:12.192Z,3.61
2019-02-18T12:22:41.470Z,3.46
2019-02-18T12:25:10.628Z,3.19
2019-02-18T12:27:40.131Z,3.14
2019-02-18T12:30:10.554Z,3.12
2019-02-18T12:32:39.690Z,3.08
2019-02-18T12:35:08.924Z,2.95
2019-02-18T12:37:38.141Z,2.75
2019-02-18T12:40:07.924Z,3.04
2019-02-18T12:42:37.439Z,3.50
2019-02-18T12:45:06.785Z,3.94
2019-02-18T12:47:35.975Z,4.22
2019-02-18T12:50:05.572Z,4.61
2019-02-18T12:52:34.794Z,5.35
2019-02-18T12:55:04.025Z,6.49
2019-02-18T12:57:33.656Z,7.54
2019-02-18T13:00:02.861Z,8.58
2019-02-18T13:02:32.032Z,9.54
2019-02-18T13:05:01.143Z,10.54
2019-02-18T13:07:30.222Z,11.31
2019-02-18T13:09:59.241Z,11.67
2019-02-18T13:12:28.270Z,12.47
2019-02-18T13:14:57.365Z,12.86
2019-02-18T13:17:26.464Z,13.08
2019-02-18T13:19:55.652Z,13.48
2019-02-18T13:22:24.753Z,14.05
2019-02-18T13:24:53.870Z,14.72
2019-02-18T13:27:22.965Z,15.03
2019-02-18T13:29:52.052Z,15.36
2019-02-18T13:32:21.402Z,15.83
2019-02-18T13:34:50.622Z,15.96
2019-02-18T13:37:19.681Z,16.09
2019-02-18T13:39:48.810Z,16.12
2019-02-18T13:42:17.900Z,16.21
2019-02-18T13:44:47.885Z,16.37
2019-02-18T13:47:16.896Z,16.26
2019-02-18T13:49:46.018Z,16.34
2019-02-18T13:52:15.191Z,16.77
2019-02-18T13:54:44.307Z,16.97
2019-02-18T13:57:13.392Z,17.33
2019-02-18T13:59:42.599Z,17.51
2019-02-18T14:02:11.680Z,17.55
2019-02-18T14:04:40.720Z,17.77
2019-02-18T14:07:09.732Z,17.94
2019-02-18T14:09:38.805Z,18.19
2019-02-18T14:12:15.705Z,18.49
2019-02-18T14:14:38.797Z,18.68
2019-02-18T14:17:07.916Z,18.74
2019-02-18T14:19:37.075Z,18.91
2019-02-18T14:22:08.006Z,18.95
2019-02-18T14:24:37.110Z,18.97
2019-02-18T14:27:06.217Z,19.15
2019-02-18T14:29:35.348Z,19.17
2019-02-18T14:32:04.827Z,19.34
2019-02-18T14:34:34.030Z,19.47
2019-02-18T14:37:03.222Z,19.70
2019-02-18T14:39:32.443Z,19.80
2019-02-18T14:42:01.500Z,19.88
2019-02-18T14:44:30.619Z,20.03
2019-02-18T14:47:00.145Z,20.30
2019-02-18T14:49:29.187Z,20.39
2019-02-18T14:51:58.315Z,20.21
2019-02-18T14:54:27.402Z,20.20
2019-02-18T14:56:56.638Z,20.28
2019-02-18T14:59:25.730Z,20.44
2019-02-18T15:01:54.873Z,20.51
2019-02-18T15:04:23.978Z,20.72
2019-02-18T15:06:53.090Z,21.11
2019-02-18T15:09:22.316Z,21.25
2019-02-18T15:11:51.322Z,21.42
2019-02-18T15:14:20.442Z,21.62
2019-02-18T15:16:49.477Z,21.66
2019-02-18T15:19:18.576Z,21.98
2019-02-18T15:21:47.654Z,22.13
2019-02-18T15:24:16.798Z,22.16
2019-02-18T15:26:45.858Z,22.22
2019-02-18T15:29:14.866Z,22.35
2019-02-18T15:31:43.907Z,22.43
2019-02-18T15:34:13.015Z,22.46
2019-02-18T15:36:42.051Z,22.50
2019-02-18T15:39:11.105Z,22.33
2019-02-18T15:41:40.148Z,22.24
2019-02-18T15:44:09.160Z,22.35
2019-02-18T15:46:38.291Z,22.48
2019-02-18T15:49:07.331Z,22.61
2019-02-18T15:51:36.413Z,22.80
2019-02-18T15:54:05.489Z,22.95
2019-02-18T15:56:34.527Z,23.06
2019-02-18T15:59:03.643Z,23.02
2019-02-18T16:01:32.702Z,23.20
2019-02-18T16:04:01.702Z,23.15
2019-02-18T16:06:30.752Z,23.11
2019-02-18T16:08:59.867Z,23.24
2019-02-18T16:11:28.927Z,22.77
2019-02-18T16:13:57.925Z,22.69
2019-02-18T16:16:27.376Z,22.59
2019-02-18T16:18:56.591Z,22.60
2019-02-18T16:21:25.687Z,22.62
2019-02-18T16:23:54.845Z,22.73
2019-02-18T16:26:23.926Z,22.55
2019-02-18T16:28:52.954Z,22.32
2019-02-18T16:31:22.027Z,22.24
2019-02-18T16:33:51.241Z,22.31
2019-02-18T16:36:20.380Z,22.43
2019-02-18T16:38:49.461Z,22.67
2019-02-18T16:41:18.585Z,22.74
2019-02-18T16:43:47.667Z,22.86
2019-02-18T16:46:17.227Z,23.11
2019-02-18T16:48:46.502Z,23.29
2019-02-18T16:51:15.580Z,23.65
2019-02-18T16:53:44.674Z,23.78
2019-02-18T16:56:13.778Z,23.95
2019-02-18T16:58:42.771Z,24.15
2019-02-18T17:01:11.770Z,24.49
2019-02-18T17:03:40.888Z,24.61
2019-02-18T17:06:09.961Z,24.82
2019-02-18T17:08:39.211Z,25.19
2019-02-18T17:11:08.492Z,25.24
2019-02-18T17:13:37.630Z,25.51
2019-02-18T17:16:06.721Z,25.86
2019-02-18T17:18:36.224Z,26.24
2019-02-18T17:21:05.477Z,26.55
2019-02-18T17:23:34.530Z,26.80
2019-02-18T17:26:03.613Z,27.22
2019-02-18T17:28:32.633Z,27.26
2019-02-18T17:31:01.672Z,27.55
2019-02-18T17:33:31.094Z,27.68
2019-02-18T17:36:00.176Z,27.86
2019-02-18T17:38:29.288Z,27.95
2019-02-18T17:40:58.296Z,28.32
2019-02-18T17:43:27.389Z,28.55
2019-02-18T17:45:56.548Z,28.62
2019-02-18T17:48:26.017Z,28.92
2019-02-18T17:50:55.128Z,29.29
2019-02-18T17:53:24.256Z,29.72
2019-02-18T17:55:53.365Z,29.54
2019-02-18T17:58:22.596Z,29.97
2019-02-18T18:00:53.911Z,29.76
2019-02-18T18:03:23.601Z,29.91
2019-02-18T18:05:52.768Z,30.38
2019-02-18T18:08:21.921Z,30.47
2019-02-18T18:10:50.994Z,30.53
2019-02-18T18:13:25.188Z,30.76
2019-02-18T18:15:51.005Z,30.77
2019-02-18T18:18:20.511Z,30.80
2019-02-18T18:20:49.645Z,31.21
2019-02-18T18:23:18.705Z,31.23
2019-02-18T18:25:47.753Z,31.75
2019-02-18T18:28:16.792Z,31.62
2019-02-18T18:30:45.823Z,31.78
2019-02-18T18:33:15.340Z,31.75
2019-02-18T18:35:44.448Z,31.89
2019-02-18T18:38:13.498Z,32.09
2019-02-18T18:40:42.567Z,31.97
2019-02-18T18:43:11.591Z,32.05
2019-02-18T18:45:40.792Z,32.18
2019-02-18T18:48:10.105Z,32.45
2019-02-18T18:50:39.245Z,32.53
2019-02-18T18:53:08.436Z,32.55
2019-02-18T18:55:37.543Z,32.88
2019-02-18T18:58:06.607Z,32.88
2019-02-18T19:00:35.715Z,33.13
2019-02-18T19:03:05.433Z,33.28
2019-02-18T19:05:34.523Z,33.46
2019-02-18T19:08:03.547Z,33.35
2019-02-18T19:10:32.582Z,33.47
2019-02-18T19:13:01.604Z,33.69
2019-02-18T19:15:30.810Z,33.65
2019-02-18T19:17:59.901Z,34.03
2019-02-18T19:20:29.078Z,34.00
2019-02-18T19:22:58.151Z,34.40
2019-02-18T19:25:27.185Z,34.51
2019-02-18T19:27:56.216Z,34.59
2019-02-18T19:30:26.983Z,34.68
2019-02-18T19:32:56.189Z,34.71
2019-02-18T19:35:25.263Z,34.82
2019-02-18T19:37:54.389Z,34.93
2019-02-18T19:40:23.483Z,34.86
2019-02-18T19:42:52.621Z,34.95
2019-02-18T19:45:22.580Z,34.84
2019-02-18T19:47:51.697Z,35.01
2019-02-18T19:50:20.753Z,35.04
2019-02-18T19:52:49.913Z,35.02
2019-02-18T19:55:18.982Z,35.34
2019-02-18T19:57:48.074Z,35.36
2019-02-18T20:00:17.925Z,35.51
2019-02-18T20:02:47.039Z,35.49
2019-02-18T20:05:16.137Z,35.71
2019-02-18T20:07:45.269Z,35.75
2019-02-18T20:10:14.377Z,35.74
2019-02-18T20:12:43.611Z,35.85
2019-02-18T20:15:13.058Z,35.97
2019-02-18T20:17:42.290Z,35.94
2019-02-18T20:20:12.001Z,36.15
2019-02-18T20:22:41.149Z,36.12
2019-02-18T20:25:10.244Z,36.56
2019-02-18T20:27:39.374Z,36.56
2019-02-18T20:30:08.915Z,36.82
2019-02-18T20:32:38.021Z,36.57
2019-02-18T20:35:07.755Z,36.69
2019-02-18T20:37:37.007Z,36.61
2019-02-18T20:40:06.477Z,36.58
2019-02-18T20:42:35.616Z,36.80
2019-02-18T20:45:04.777Z,36.89
2019-02-18T20:47:33.818Z,36.93
2019-02-18T20:50:02.875Z,36.98
2019-02-18T20:52:31.978Z,36.94
2019-02-18T20:55:01.004Z,37.00
2019-02-18T20:57:30.152Z,37.00
2019-02-18T20:59:59.156Z,37.10
2019-02-18T21:02:28.146Z,37.11
2019-02-18T21:04:57.118Z,37.05
2019-02-18T21:07:26.152Z,37.07
2019-02-18T21:09:55.310Z,37.11
2019-02-18T21:12:24.449Z,37.18
2019-02-18T21:14:53.544Z,37.25
2019-02-18T21:17:22.676Z,37.39
2019-02-18T21:19:51.795Z,37.46
2019-02-18T21:22:20.832Z,37.78
2019-02-18T21:24:49.948Z,37.74
2019-02-18T21:27:18.969Z,37.83
2019-02-18T21:29:48.108Z,37.87
2019-02-18T21:32:17.110Z,37.96
2019-02-18T21:34:46.232Z,37.99
2019-02-18T21:37:15.297Z,38.15
2019-02-18T21:39:44.427Z,38.11
2019-02-18T21:42:13.495Z,38.13
2019-02-18T21:44:42.597Z,37.97
2019-02-18T21:47:11.638Z,38.13
2019-02-18T21:49:40.723Z,38.22
2019-02-18T21:52:09.807Z,38.25
2019-02-18T21:54:38.816Z,38.18
2019-02-18T21:57:07.839Z,38.25
2019-02-18T21:59:37.040Z,38.30
2019-02-18T22:02:06.098Z,38.25
2019-02-18T22:04:35.152Z,38.32
2019-02-18T22:07:10.022Z,38.39
2019-02-18T22:09:39.011Z,38.40
2019-02-18T22:12:08.275Z,38.84
2019-02-18T22:14:37.302Z,38.92
2019-02-18T22:17:06.320Z,38.93
2019-02-18T22:19:35.367Z,39.12
2019-02-18T22:22:04.373Z,39.15
2019-02-18T22:24:33.481Z,39.06
2019-02-18T22:27:02.492Z,39.18
2019-02-18T22:29:31.963Z,39.20
2019-02-18T22:32:00.996Z,39.18
2019-02-18T22:34:29.987Z,39.06
2019-02-18T22:36:58.991Z,39.18
2019-02-18T22:39:28.389Z,39.28
2019-02-18T22:41:57.437Z,39.32
2019-02-18T22:44:27.356Z,39.25
2019-02-18T22:46:56.358Z,39.38
2019-02-18T22:49:25.331Z,39.23
2019-02-18T22:51:54.337Z,39.21
2019-02-18T22:54:23.271Z,39.23
2019-02-18T22:56:54.459Z,39.29
2019-02-18T22:59:23.472Z,39.27
2019-02-18T23:01:52.499Z,39.30
2019-02-18T23:04:21.516Z,39.27
2019-02-18T23:06:50.519Z,39.27
2019-02-18T23:09:19.629Z,39.36
2019-02-18T23:11:48.726Z,39.13
2019-02-18T23:14:17.783Z,39.01
2019-02-18T23:16:46.993Z,39.06
2019-02-18T23:19:15.980Z,39.17
2019-02-18T23:21:44.984Z,39.13
2019-02-18T23:24:14.009Z,39.07
2019-02-18T23:26:43.060Z,39.12
2019-02-18T23:29:12.090Z,39.08
2019-02-18T23:31:41.149Z,39.04
2019-02-18T23:34:10.236Z,39.08
2019-02-18T23:36:39.262Z,39.05
2019-02-18T23:39:08.288Z,39.06
2019-02-18T23:41:37.342Z,39.07
2019-02-18T23:44:06.358Z,39.07
2019-02-18T23:46:35.493Z,39.09
2019-02-18T23:49:04.527Z,39.15
2019-02-18T23:51:33.702Z,39.25
2019-02-18T23:54:02.722Z,39.34
2019-02-18T23:56:31.839Z,39.37
2019-02-18T23:59:00.854Z,39.43
